Time;durP1;ratioP1;P1;durP2;ratioP2;P2;SDS_P1;SDS_P2;PMS_P1;PMS_P2;Temp;Humidity;BMP_temperature;BMP_pressure;BME280_temperature;BME280_humidity;BME280_pressure;Samples;Min_cycle;Max_cycle;Signal;HPM_P1;HPM_P2
2023/05/31 00:00:23;;;;;;;19.20;11.10;;;12.20;99.90;;;;;;4999240;28;20197;-72
2023/05/31 00:02:49;;;;;;;17.67;10.80;;;12.20;99.90;;;;;;5000788;28;20621;-72
2023/05/31 00:05:15;;;;;;;18.23;10.82;;;12.20;99.90;;;;;;4994604;28;20201;-72
2023/05/31 00:07:40;;;;;;;15.93;10.50;;;12.10;99.90;;;;;;4998954;28;20661;-73
2023/05/31 00:10:06;;;;;;;17.17;10.63;;;12.00;99.90;;;;;;5000487;28;20653;-72
2023/05/31 00:12:32;;;;;;;20.13;10.93;;;11.90;99.90;;;;;;4999192;28;20188;-72
2023/05/31 00:14:58;;;;;;;16.17;10.40;;;11.90;99.90;;;;;;5000186;28;20168;-72
2023/05/31 00:17:23;;;;;;;13.35;9.48;;;11.80;99.90;;;;;;4998887;28;20176;-73
2023/05/31 00:19:50;;;;;;;15.23;10.20;;;11.90;99.90;;;;;;5000382;28;20168;-73
2023/05/31 00:22:16;;;;;;;14.48;10.25;;;11.90;99.90;;;;;;5000499;28;20637;-72
2023/05/31 00:24:43;;;;;;;14.88;10.40;;;12.00;99.90;;;;;;5000245;28;20664;-72
2023/05/31 00:27:09;;;;;;;17.15;11.25;;;11.90;99.90;;;;;;5000162;28;20310;-74
2023/05/31 00:29:35;;;;;;;14.88;10.27;;;11.90;99.90;;;;;;4997148;28;20633;-72
2023/05/31 00:32:00;;;;;;;16.85;10.63;;;11.90;99.90;;;;;;4995897;28;20275;-72
2023/05/31 00:34:26;;;;;;;16.35;10.50;;;11.80;99.90;;;;;;5011964;28;20628;-72
2023/05/31 00:36:52;;;;;;;17.33;10.40;;;11.80;99.90;;;;;;4991562;28;20553;-72
2023/05/31 00:39:18;;;;;;;16.25;10.02;;;11.80;99.90;;;;;;5011832;28;20271;-73
2023/05/31 00:41:44;;;;;;;16.52;10.65;;;11.70;99.90;;;;;;4997019;28;20724;-73
2023/05/31 00:44:10;;;;;;;16.15;10.90;;;11.70;99.90;;;;;;4996803;28;20235;-72
2023/05/31 00:46:38;;;;;;;20.45;10.63;;;11.70;99.90;;;;;;4995627;28;20649;-72
2023/05/31 00:49:04;;;;;;;18.35;10.23;;;11.70;99.90;;;;;;4995652;28;20223;-72
2023/05/31 00:51:32;;;;;;;15.02;9.65;;;11.80;99.90;;;;;;4996675;28;20205;-73
2023/05/31 00:54:00;;;;;;;15.23;9.63;;;11.70;99.90;;;;;;4996622;28;20212;-72
2023/05/31 00:56:26;;;;;;;13.45;9.27;;;11.70;99.90;;;;;;4995242;28;20200;-72
2023/05/31 00:58:55;;;;;;;15.40;9.82;;;11.70;99.90;;;;;;4996783;28;20191;-72
2023/05/31 01:01:25;;;;;;;15.35;9.32;;;11.70;99.90;;;;;;4996464;28;20200;-73
2023/05/31 01:03:53;;;;;;;18.42;9.80;;;11.60;99.90;;;;;;4997420;28;20165;-73
2023/05/31 01:06:18;;;;;;;14.80;10.00;;;11.60;99.90;;;;;;4992459;28;20275;-72
2023/05/31 01:08:44;;;;;;;16.13;9.73;;;11.40;99.90;;;;;;4998136;28;20231;-72
2023/05/31 01:11:22;;;;;;;15.57;10.27;;;11.30;99.90;;;;;;5013403;28;20238;-72
2023/05/31 01:13:58;;;;;;;16.17;10.30;;;11.10;99.90;;;;;;4996060;28;20200;-72
2023/05/31 01:16:36;;;;;;;14.43;9.75;;;10.90;99.90;;;;;;4995380;28;20544;-72
2023/05/31 01:19:07;;;;;;;16.10;10.00;;;10.80;99.90;;;;;;4997069;28;20152;-72
2023/05/31 01:22:28;;;;;;;16.02;10.13;;;10.80;99.90;;;;;;4996256;28;20198;-72
2023/05/31 01:25:12;;;;;;;14.10;9.13;;;11.00;99.90;;;;;;4939279;29;20182;-74
2023/05/31 01:27:41;;;;;;;13.10;9.45;;;11.10;99.90;;;;;;4990419;28;20188;-72
2023/05/31 01:30:09;;;;;;;15.52;9.90;;;11.00;99.90;;;;;;4994632;28;20203;-74
2023/05/31 01:32:36;;;;;;;14.98;9.15;;;11.00;99.90;;;;;;4995880;28;20185;-72
2023/05/31 01:35:02;;;;;;;13.18;9.32;;;11.10;99.90;;;;;;4990021;28;20720;-72
2023/05/31 01:37:28;;;;;;;14.60;9.77;;;11.10;99.90;;;;;;4994728;28;20180;-72
2023/05/31 01:39:54;;;;;;;13.63;9.02;;;11.00;99.90;;;;;;4994511;28;20288;-72
2023/05/31 01:42:22;;;;;;;13.63;8.82;;;11.00;99.90;;;;;;4996183;28;20182;-72
2023/05/31 01:44:49;;;;;;;16.05;9.77;;;11.10;99.90;;;;;;4995519;28;20219;-72
2023/05/31 01:47:15;;;;;;;14.68;9.70;;;11.10;99.90;;;;;;4994414;28;20181;-72
2023/05/31 01:49:41;;;;;;;14.18;9.40;;;11.10;99.90;;;;;;4995549;28;20177;-72
2023/05/31 01:52:12;;;;;;;13.90;9.32;;;11.00;99.90;;;;;;4995573;28;20219;-72
2023/05/31 01:54:38;;;;;;;13.07;8.73;;;11.00;99.90;;;;;;4995567;28;20200;-72
2023/05/31 01:57:06;;;;;;;14.65;9.07;;;10.90;99.90;;;;;;4995397;28;20266;-73
2023/05/31 01:59:35;;;;;;;13.57;9.18;;;10.80;99.90;;;;;;4994254;28;20552;-72
2023/05/31 02:02:03;;;;;;;15.77;9.38;;;10.70;99.90;;;;;;4995711;28;20680;-72
2023/05/31 02:04:28;;;;;;;12.70;8.75;;;10.50;99.90;;;;;;4994954;28;20193;-72
2023/05/31 02:06:54;;;;;;;15.63;9.50;;;10.50;99.90;;;;;;4991583;28;20185;-72
2023/05/31 02:09:21;;;;;;;14.77;9.67;;;10.50;99.90;;;;;;4995631;28;20200;-72
2023/05/31 02:11:47;;;;;;;17.53;9.67;;;10.50;99.90;;;;;;4993880;28;20204;-72
2023/05/31 02:14:12;;;;;;;14.97;9.03;;;10.50;99.90;;;;;;4995392;28;20551;-73
2023/05/31 02:16:38;;;;;;;14.67;9.70;;;10.30;99.90;;;;;;4995376;28;20180;-73
2023/05/31 02:19:04;;;;;;;15.07;10.33;;;10.20;99.90;;;;;;4993923;28;20551;-72
2023/05/31 02:21:35;;;;;;;15.80;9.60;;;10.30;99.90;;;;;;5010039;28;20722;-72
2023/05/31 02:24:01;;;;;;;13.03;9.33;;;10.20;99.90;;;;;;4995658;28;20195;-72
2023/05/31 02:26:27;;;;;;;13.93;9.37;;;10.30;99.90;;;;;;4993782;28;20566;-72
2023/05/31 02:28:53;;;;;;;15.37;10.57;;;10.20;99.90;;;;;;4993992;28;20192;-72
2023/05/31 02:31:19;;;;;;;14.57;10.10;;;10.20;99.90;;;;;;4994810;28;20201;-72
2023/05/31 02:33:45;;;;;;;18.10;10.25;;;10.20;99.90;;;;;;4994638;28;20200;-73
2023/05/31 02:36:11;;;;;;;13.48;8.82;;;10.30;99.90;;;;;;4988943;28;20199;-71
2023/05/31 02:38:37;;;;;;;13.40;9.27;;;10.30;99.90;;;;;;4993403;28;20562;-72
2023/05/31 02:41:03;;;;;;;15.80;9.48;;;10.40;99.90;;;;;;4994716;28;20200;-72
2023/05/31 02:43:30;;;;;;;12.50;8.87;;;10.40;99.90;;;;;;4993326;28;20549;-72
2023/05/31 02:45:56;;;;;;;13.20;8.90;;;10.50;99.90;;;;;;4994627;28;20176;-72
2023/05/31 02:48:22;;;;;;;13.37;9.33;;;10.50;99.90;;;;;;4993497;28;20185;-72
2023/05/31 02:50:48;;;;;;;13.70;9.10;;;10.50;99.90;;;;;;4994638;28;20207;-72
2023/05/31 02:53:13;;;;;;;13.37;9.00;;;10.50;99.90;;;;;;4993920;28;20222;-72
2023/05/31 02:55:40;;;;;;;16.43;9.57;;;10.50;99.90;;;;;;4994489;28;20208;-72
2023/05/31 02:58:06;;;;;;;11.27;8.33;;;10.40;99.90;;;;;;5009434;28;20634;-72
2023/05/31 03:00:33;;;;;;;18.73;8.93;;;10.40;99.90;;;;;;4993328;28;20224;-73
2023/05/31 03:02:59;;;;;;;15.67;9.17;;;10.40;99.90;;;;;;4994374;28;20610;-72
2023/05/31 03:05:26;;;;;;;12.30;8.67;;;10.30;99.90;;;;;;5005728;28;20207;-72
2023/05/31 03:07:51;;;;;;;14.63;9.60;;;10.20;99.90;;;;;;4989776;28;20213;-72
2023/05/31 03:10:17;;;;;;;15.40;10.00;;;10.20;99.90;;;;;;4975271;28;20243;-72
2023/05/31 03:12:43;;;;;;;12.53;8.83;;;10.10;99.90;;;;;;4975086;28;20181;-72
2023/05/31 03:15:09;;;;;;;14.13;9.00;;;10.00;99.90;;;;;;4974700;28;20264;-72
2023/05/31 03:17:37;;;;;;;12.87;8.90;;;10.00;99.90;;;;;;4975567;28;20180;-69
2023/05/31 03:20:06;;;;;;;11.57;8.60;;;9.90;99.90;;;;;;4975347;28;20197;-71
2023/05/31 03:22:31;;;;;;;15.20;9.60;;;9.90;99.90;;;;;;4976445;28;20177;-70
2023/05/31 03:24:57;;;;;;;14.77;9.67;;;9.90;99.90;;;;;;4975198;28;20204;-69
2023/05/31 03:27:23;;;;;;;13.30;8.87;;;9.90;99.90;;;;;;4975275;28;20177;-69
2023/05/31 03:29:49;;;;;;;13.18;8.43;;;9.90;99.90;;;;;;4974869;28;20165;-70
2023/05/31 03:32:15;;;;;;;15.05;8.90;;;9.80;99.90;;;;;;4973551;28;20188;-69
2023/05/31 03:34:41;;;;;;;13.07;8.77;;;9.80;99.90;;;;;;4989674;28;20681;-69
2023/05/31 03:37:06;;;;;;;14.27;8.90;;;9.80;99.90;;;;;;4990607;28;20571;-69
2023/05/31 03:39:32;;;;;;;12.90;9.03;;;9.80;99.90;;;;;;4992760;28;20184;-69
2023/05/31 03:42:00;;;;;;;12.50;9.03;;;9.90;99.90;;;;;;4993939;28;20198;-69
2023/05/31 03:44:26;;;;;;;12.13;9.30;;;10.00;99.90;;;;;;4992802;28;20245;-69
2023/05/31 03:46:52;;;;;;;13.43;9.13;;;10.00;99.90;;;;;;5008805;28;20285;-69
2023/05/31 03:49:17;;;;;;;14.52;10.02;;;10.00;99.90;;;;;;4994336;28;20187;-69
2023/05/31 03:51:43;;;;;;;14.38;10.13;;;10.10;99.90;;;;;;4993997;28;20683;-69
2023/05/31 03:54:09;;;;;;;16.90;9.90;;;10.10;99.90;;;;;;4994021;28;20208;-69
2023/05/31 03:56:35;;;;;;;15.73;9.40;;;10.10;99.90;;;;;;4993823;28;20204;-69
2023/05/31 03:59:00;;;;;;;13.40;10.07;;;10.00;99.90;;;;;;4993880;28;20204;-69
2023/05/31 04:01:26;;;;;;;16.53;10.53;;;10.00;99.90;;;;;;4993752;28;20284;-69
2023/05/31 04:03:52;;;;;;;15.60;9.40;;;10.10;99.90;;;;;;4993928;28;20180;-69
2023/05/31 04:06:18;;;;;;;13.87;9.50;;;10.10;99.90;;;;;;4991602;28;20196;-69
2023/05/31 04:12:06;;;;;;;14.70;10.53;;;10.10;99.90;;;;;;4997505;28;20629;-69
2023/05/31 04:14:32;;;;;;;17.37;11.17;;;10.10;99.90;;;;;;5012375;28;20208;-69
2023/05/31 04:16:57;;;;;;;14.27;10.40;;;10.10;99.90;;;;;;4997232;28;20735;-69
2023/05/31 04:19:23;;;;;;;18.57;11.17;;;10.10;99.90;;;;;;4997568;28;20235;-69
2023/05/31 04:21:49;;;;;;;16.33;11.37;;;10.10;99.90;;;;;;4996628;28;20246;-69
2023/05/31 04:24:30;;;;;;;16.70;11.63;;;10.10;99.90;;;;;;4997306;28;20186;-69
2023/05/31 04:26:56;;;;;;;15.03;10.43;;;10.20;99.90;;;;;;4997140;28;20716;-69
2023/05/31 04:29:22;;;;;;;16.57;11.57;;;10.20;99.90;;;;;;4997137;28;20177;-69
2023/05/31 04:31:48;;;;;;;16.52;11.27;;;10.30;99.90;;;;;;4995549;28;20235;-69
2023/05/31 04:34:18;;;;;;;16.97;11.70;;;10.40;99.90;;;;;;5012018;28;20204;-69
2023/05/31 04:36:48;;;;;;;19.83;12.20;;;10.40;99.90;;;;;;4992293;28;20193;-69
2023/05/31 04:39:19;;;;;;;19.60;12.30;;;10.50;99.90;;;;;;4996809;28;20177;-69
2023/05/31 04:41:45;;;;;;;20.33;12.07;;;10.50;99.90;;;;;;4996904;28;20196;-69
2023/05/31 04:44:11;;;;;;;18.77;11.67;;;10.60;99.90;;;;;;4995373;28;20318;-69
2023/05/31 04:46:40;;;;;;;21.30;13.47;;;10.70;99.90;;;;;;4996471;28;20181;-69
2023/05/31 04:49:06;;;;;;;20.13;12.73;;;10.70;99.90;;;;;;4995289;28;20185;-69
2023/05/31 04:51:35;;;;;;;22.93;13.37;;;10.70;99.90;;;;;;5012289;28;20266;-70
2023/05/31 04:54:02;;;;;;;17.90;12.60;;;10.80;99.90;;;;;;4996293;28;20227;-71
2023/05/31 04:56:30;;;;;;;21.70;12.70;;;10.90;99.90;;;;;;4998315;28;20679;-72
2023/05/31 04:58:56;;;;;;;19.23;12.70;;;10.90;99.90;;;;;;5012764;28;20569;-72
2023/05/31 05:01:24;;;;;;;18.42;12.70;;;11.00;99.90;;;;;;4997967;28;20211;-72
2023/05/31 05:03:52;;;;;;;18.40;12.43;;;11.10;99.90;;;;;;4998641;28;20161;-70
2023/05/31 05:06:20;;;;;;;18.53;12.43;;;11.20;99.90;;;;;;5008016;28;20252;-71
2023/05/31 05:08:47;;;;;;;18.75;12.93;;;11.20;99.90;;;;;;4998545;28;20180;-69
2023/05/31 05:11:13;;;;;;;20.15;13.02;;;11.30;99.90;;;;;;4998399;28;20673;-69
2023/05/31 05:13:42;;;;;;;16.25;12.27;;;11.40;99.90;;;;;;4997684;28;20251;-69
2023/05/31 05:16:08;;;;;;;21.08;13.68;;;11.40;99.90;;;;;;4994424;28;20189;-69
2023/05/31 05:18:34;;;;;;;16.67;12.60;;;11.50;99.90;;;;;;5011205;28;20177;-69
2023/05/31 05:21:00;;;;;;;16.50;11.45;;;11.60;99.90;;;;;;4995950;28;20626;-69
2023/05/31 05:23:26;;;;;;;17.60;12.75;;;11.70;99.90;;;;;;4994599;28;20188;-68
2023/05/31 05:25:53;;;;;;;19.38;12.18;;;11.80;99.90;;;;;;4995816;28;20191;-68
2023/05/31 05:28:20;;;;;;;23.27;13.00;;;11.90;99.90;;;;;;5010897;28;20275;-68
2023/05/31 05:30:45;;;;;;;20.88;13.18;;;12.00;99.90;;;;;;4995724;28;20224;-68
2023/05/31 05:33:11;;;;;;;19.15;12.63;;;12.10;99.90;;;;;;4995569;28;20204;-68
2023/05/31 05:35:37;;;;;;;22.88;13.90;;;12.20;99.90;;;;;;4991068;28;20268;-68
2023/05/31 05:38:02;;;;;;;16.77;12.27;;;12.20;99.90;;;;;;5010640;28;20743;-68
2023/05/31 05:40:28;;;;;;;16.08;12.55;;;12.30;99.90;;;;;;4996065;28;20210;-68
2023/05/31 05:42:54;;;;;;;21.92;13.02;;;12.40;99.90;;;;;;4995813;28;20196;-68
2023/05/31 05:45:20;;;;;;;18.92;12.45;;;12.50;99.90;;;;;;4995373;28;20184;-68
2023/05/31 05:47:48;;;;;;;19.33;13.48;;;12.60;99.90;;;;;;4994183;28;20184;-68
2023/05/31 05:50:14;;;;;;;17.90;12.70;;;12.70;99.90;;;;;;4995303;28;20665;-69
2023/05/31 05:52:40;;;;;;;20.23;12.85;;;12.80;99.90;;;;;;4995240;28;20185;-68
2023/05/31 05:55:06;;;;;;;20.63;12.00;;;12.80;99.90;;;;;;4994014;28;20568;-68
2023/05/31 05:57:32;;;;;;;20.83;11.73;;;13.00;99.90;;;;;;4995108;28;20577;-68
2023/05/31 05:59:58;;;;;;;16.25;11.20;;;13.10;99.90;;;;;;4995127;28;20197;-68
2023/05/31 06:02:24;;;;;;;17.90;10.80;;;13.20;99.90;;;;;;5010111;28;20180;-68
2023/05/31 06:04:49;;;;;;;14.68;10.68;;;13.30;99.90;;;;;;4991803;28;20196;-68
2023/05/31 06:07:16;;;;;;;14.80;10.60;;;13.40;99.90;;;;;;4992615;28;20196;-68
2023/05/31 06:09:42;;;;;;;16.33;10.52;;;13.50;99.90;;;;;;4995165;28;20183;-68
2023/05/31 06:12:09;;;;;;;19.85;11.75;;;13.60;99.90;;;;;;4994911;28;20263;-68
2023/05/31 06:14:35;;;;;;;16.17;10.25;;;13.70;99.90;;;;;;4995148;28;20196;-68
2023/05/31 06:17:00;;;;;;;20.50;11.98;;;13.80;99.90;;;;;;4994824;28;20598;-68
2023/05/31 06:19:26;;;;;;;20.90;11.65;;;13.90;99.90;;;;;;4993528;28;20264;-68
2023/05/31 06:21:53;;;;;;;17.67;10.73;;;14.00;99.90;;;;;;4993446;28;20196;-69
2023/05/31 06:24:19;;;;;;;17.25;11.15;;;14.10;99.90;;;;;;4993428;28;20192;-68
2023/05/31 06:26:45;;;;;;;21.25;11.40;;;14.20;99.90;;;;;;5009301;28;20181;-68
2023/05/31 06:29:11;;;;;;;18.02;11.65;;;14.20;99.90;;;;;;4994621;28;20176;-68
2023/05/31 06:31:38;;;;;;;14.50;10.40;;;14.30;99.90;;;;;;4994506;28;20188;-69
2023/05/31 06:34:04;;;;;;;18.20;11.77;;;14.40;99.90;;;;;;4995024;28;20672;-69
2023/05/31 06:36:31;;;;;;;18.65;11.80;;;14.30;99.90;;;;;;4990011;28;20200;-68
2023/05/31 06:38:57;;;;;;;14.52;11.07;;;14.30;99.90;;;;;;5009619;28;20181;-69
2023/05/31 06:41:24;;;;;;;19.95;11.20;;;14.40;99.90;;;;;;4994813;28;20188;-68
2023/05/31 06:43:49;;;;;;;21.05;12.82;;;14.40;99.90;;;;;;5009703;28;20182;-69
2023/05/31 06:46:15;;;;;;;18.50;12.38;;;14.50;99.90;;;;;;4994399;28;20178;-68
2023/05/31 06:48:41;;;;;;;17.80;11.63;;;14.50;99.90;;;;;;4995018;28;20587;-69
2023/05/31 06:51:06;;;;;;;18.90;11.18;;;14.50;99.90;;;;;;4994706;28;20661;-68
2023/05/31 06:53:32;;;;;;;18.98;12.57;;;14.60;99.90;;;;;;4994857;28;20200;-68
2023/05/31 06:55:58;;;;;;;19.67;11.65;;;14.70;99.90;;;;;;4995121;28;20558;-68
2023/05/31 06:58:24;;;;;;;20.98;12.20;;;14.70;99.90;;;;;;4995449;28;20571;-68
2023/05/31 07:00:50;;;;;;;19.67;11.38;;;14.70;99.90;;;;;;5010279;28;20203;-68
2023/05/31 07:03:15;;;;;;;19.42;12.55;;;14.70;99.90;;;;;;5009788;28;20596;-68
2023/05/31 07:05:43;;;;;;;16.30;12.00;;;14.70;99.90;;;;;;4989788;28;20597;-68
2023/05/31 07:08:10;;;;;;;18.52;12.57;;;14.70;99.90;;;;;;4994264;28;20177;-68
2023/05/31 07:10:35;;;;;;;21.20;11.77;;;14.70;99.90;;;;;;4994213;28;20543;-68
2023/05/31 07:13:01;;;;;;;17.70;11.52;;;14.80;99.90;;;;;;4994025;28;20343;-68
2023/05/31 07:15:27;;;;;;;17.13;11.50;;;14.90;99.90;;;;;;5009048;28;20176;-68
2023/05/31 07:17:53;;;;;;;18.38;11.30;;;15.00;99.90;;;;;;4994584;28;20200;-69
2023/05/31 07:20:19;;;;;;;20.33;11.52;;;15.10;99.90;;;;;;5009148;28;20192;-69
2023/05/31 07:22:45;;;;;;;20.45;11.55;;;15.20;99.90;;;;;;4994631;28;20157;-69
2023/05/31 07:25:11;;;;;;;15.23;10.65;;;15.30;99.90;;;;;;4995626;28;20148;-70
2023/05/31 07:27:36;;;;;;;14.75;10.95;;;15.40;99.90;;;;;;4995433;28;20219;-68
2023/05/31 07:30:03;;;;;;;18.58;11.48;;;15.60;99.90;;;;;;4994404;28;20251;-70
2023/05/31 07:32:28;;;;;;;16.60;10.40;;;15.60;99.90;;;;;;4992503;28;20176;-70
2023/05/31 07:34:54;;;;;;;15.30;9.90;;;15.70;99.90;;;;;;4988913;28;20215;-69
2023/05/31 07:37:20;;;;;;;15.30;9.82;;;15.80;99.90;;;;;;4992295;28;20188;-70
2023/05/31 07:39:46;;;;;;;18.65;10.30;;;15.90;99.90;;;;;;4997083;28;20180;-69
2023/05/31 07:42:12;;;;;;;15.27;9.00;;;16.00;99.90;;;;;;4996710;28;20180;-70
2023/05/31 07:44:39;;;;;;;17.90;8.63;;;16.10;99.90;;;;;;4996732;28;20250;-70
2023/05/31 07:47:05;;;;;;;16.17;11.10;;;16.30;99.90;;;;;;4996379;28;20176;-70
2023/05/31 07:49:31;;;;;;;14.68;9.10;;;16.30;99.90;;;;;;5012857;28;20176;-70
2023/05/31 07:51:56;;;;;;;13.57;9.70;;;16.40;99.90;;;;;;5012656;28;20673;-70
2023/05/31 07:54:22;;;;;;;16.60;9.52;;;16.50;99.90;;;;;;4997787;28;20204;-68
2023/05/31 07:56:48;;;;;;;13.52;9.13;;;16.60;99.90;;;;;;5012783;28;20200;-69
2023/05/31 07:59:13;;;;;;;12.75;8.90;;;16.60;99.90;;;;;;4997609;28;20172;-69
2023/05/31 08:01:42;;;;;;;13.05;8.95;;;16.70;99.90;;;;;;4997248;28;20192;-69
2023/05/31 08:04:12;;;;;;;16.30;9.77;;;16.60;99.90;;;;;;4997962;28;20633;-69
2023/05/31 08:06:38;;;;;;;13.48;9.38;;;16.60;99.90;;;;;;4992860;28;20219;-69
2023/05/31 08:09:05;;;;;;;15.00;9.68;;;16.70;99.90;;;;;;4997903;28;20176;-69
2023/05/31 08:11:31;;;;;;;16.27;8.77;;;16.80;99.90;;;;;;4997622;28;20211;-69
2023/05/31 08:13:57;;;;;;;16.95;9.15;;;16.90;99.90;;;;;;4997182;28;20206;-69
2023/05/31 08:16:22;;;;;;;15.57;9.75;;;17.00;99.90;;;;;;4997440;28;20583;-69
2023/05/31 08:18:48;;;;;;;18.33;9.57;;;17.10;99.90;;;;;;4997771;28;20169;-69
2023/05/31 08:21:14;;;;;;;14.02;8.45;;;17.30;99.90;;;;;;4996006;28;20201;-69
2023/05/31 08:23:41;;;;;;;14.88;8.63;;;17.50;99.90;;;;;;4997359;28;20177;-70
2023/05/31 08:26:07;;;;;;;13.40;8.15;;;17.60;99.90;;;;;;4997395;28;20175;-69
2023/05/31 08:28:33;;;;;;;14.27;8.23;;;17.80;99.90;;;;;;4996976;28;20176;-69
2023/05/31 08:30:59;;;;;;;11.77;7.68;;;18.10;99.90;;;;;;4995636;28;20200;-69
2023/05/31 08:33:31;;;;;;;14.52;8.13;;;18.30;99.90;;;;;;4995690;28;20726;-69
2023/05/31 08:36:01;;;;;;;12.20;7.57;;;18.70;99.90;;;;;;4992525;28;20189;-69
2023/05/31 08:38:30;;;;;;;18.02;7.95;;;19.00;99.90;;;;;;4997091;28;20173;-69
2023/05/31 08:41:02;;;;;;;11.95;7.35;;;19.40;99.90;;;;;;4995374;28;20247;-69
2023/05/31 08:43:28;;;;;;;14.55;8.10;;;19.70;99.90;;;;;;4995426;28;20181;-69
2023/05/31 08:45:55;;;;;;;10.45;7.65;;;19.90;1.00;;;;;;4996995;28;20180;-70
2023/05/31 08:48:33;;;;;;;12.15;7.13;;;19.90;1.00;;;;;;4996943;28;20177;-69
2023/05/31 08:51:01;;;;;;;14.27;6.95;;;20.10;8.20;;;;;;4994359;28;20262;-69
2023/05/31 08:53:28;;;;;;;13.45;7.38;;;20.10;99.90;;;;;;4996496;28;20255;-69
2023/05/31 08:55:54;;;;;;;10.88;6.93;;;20.30;1.00;;;;;;4995164;28;20243;-69
2023/05/31 08:58:21;;;;;;;11.75;6.72;;;20.40;99.10;;;;;;4996560;28;20231;-69
2023/05/31 09:00:48;;;;;;;10.77;5.82;;;20.60;99.90;;;;;;4996154;28;20619;-69
2023/05/31 09:03:13;;;;;;;12.13;6.45;;;20.70;1.00;;;;;;4996784;28;20183;-69
2023/05/31 09:05:39;;;;;;;10.90;6.85;;;20.80;1.00;;;;;;4991709;28;20193;-69
2023/05/31 09:08:05;;;;;;;12.40;6.50;;;21.10;1.00;;;;;;4996539;28;20172;-69
2023/05/31 09:10:31;;;;;;;11.00;5.93;;;21.20;1.00;;;;;;5011282;28;20200;-69
2023/05/31 09:12:57;;;;;;;7.63;5.45;;;21.20;1.00;;;;;;4996005;28;20173;-69
2023/05/31 09:15:24;;;;;;;10.02;5.68;;;21.30;1.00;;;;;;4994837;28;20184;-69
2023/05/31 09:17:51;;;;;;;12.60;6.20;;;21.70;9.10;;;;;;4995792;28;20183;-69
2023/05/31 09:20:18;;;;;;;9.75;5.70;;;21.90;1.00;;;;;;4995913;28;20255;-70
2023/05/31 09:22:51;;;;;;;9.32;5.32;;;22.10;98.90;;;;;;4994695;28;20312;-70
2023/05/31 09:25:17;;;;;;;10.43;5.82;;;22.30;99.90;;;;;;4996403;28;20168;-69
2023/05/31 09:27:43;;;;;;;9.80;5.15;;;22.50;99.90;;;;;;5011018;28;20247;-70
2023/05/31 09:30:11;;;;;;;11.23;5.35;;;22.70;99.90;;;;;;4995832;28;20197;-70
2023/05/31 09:32:37;;;;;;;11.45;5.47;;;22.70;1.00;;;;;;4995492;28;20318;-69
2023/05/31 09:35:17;;;;;;;10.93;4.95;;;22.80;99.90;;;;;;4991137;28;20215;-70
2023/05/31 09:37:49;;;;;;;10.20;4.72;;;22.90;99.90;;;;;;4995999;28;20610;-70
2023/05/31 09:40:24;;;;;;;10.43;5.10;;;23.00;1.00;;;;;;4995875;28;20245;-69
2023/05/31 09:42:51;;;;;;;9.32;4.85;;;23.10;99.90;;;;;;4994376;28;20168;-69
2023/05/31 09:45:18;;;;;;;9.27;4.82;;;23.00;67.10;;;;;;4995467;28;20173;-70
2023/05/31 09:47:44;;;;;;;11.20;5.07;;;23.00;1.00;;;;;;4995269;28;20176;-70
2023/05/31 09:50:11;;;;;;;9.13;4.90;;;22.70;99.90;;;;;;4995449;28;20235;-69
2023/05/31 09:52:40;;;;;;;10.65;4.13;;;22.60;99.90;;;;;;4994237;28;20186;-69
2023/05/31 09:55:08;;;;;;;8.55;5.00;;;22.90;99.90;;;;;;5010335;28;20235;-69
2023/05/31 09:57:41;;;;;;;6.85;4.65;;;22.90;99.90;;;;;;4995191;28;20210;-70
2023/05/31 10:00:20;;;;;;;7.85;3.88;;;23.00;1.00;;;;;;4995696;28;20280;-70
2023/05/31 10:02:53;;;;;;;7.70;4.22;;;23.00;99.90;;;;;;4995415;28;20156;-70
2023/05/31 10:05:20;;;;;;;11.35;4.88;;;23.10;99.90;;;;;;4991289;28;20264;-70
2023/05/31 10:07:51;;;;;;;7.50;3.85;;;23.30;99.90;;;;;;4995086;28;20176;-69
2023/05/31 10:10:20;;;;;;;7.18;3.90;;;23.40;57.10;;;;;;4993734;28;20203;-69
2023/05/31 10:12:49;;;;;;;8.52;4.05;;;23.60;1.00;;;;;;4993682;28;20177;-70
2023/05/31 10:15:19;;;;;;;7.53;3.30;;;23.80;99.90;;;;;;4993941;28;20177;-69
2023/05/31 10:17:58;;;;;;;7.07;3.60;;;23.90;99.90;;;;;;4993578;28;20207;-69
2023/05/31 10:20:28;;;;;;;8.63;3.88;;;23.80;1.00;;;;;;4993575;28;20307;-70
2023/05/31 10:22:57;;;;;;;10.88;3.78;;;23.60;99.90;;;;;;4994881;28;20153;-70
2023/05/31 10:25:35;;;;;;;9.85;3.10;;;23.40;99.90;;;;;;4994767;28;20172;-70
2023/05/31 10:28:06;;;;;;;6.88;3.90;;;23.40;99.90;;;;;;4995059;28;20153;-70
2023/05/31 10:30:37;;;;;;;8.45;3.08;;;23.30;99.90;;;;;;4993415;28;20267;-70
2023/05/31 10:33:10;;;;;;;5.65;3.60;;;23.20;1.00;;;;;;4994549;28;20149;-69
2023/05/31 10:35:36;;;;;;;5.55;3.00;;;22.90;1.00;;;;;;4990322;28;20188;-70
2023/05/31 10:38:03;;;;;;;7.40;3.65;;;22.50;1.00;;;;;;4993325;28;20244;-70
2023/05/31 10:40:36;;;;;;;9.23;3.15;;;22.60;1.00;;;;;;4993199;28;20502;-69
2023/05/31 10:43:50;;;;;;;4.75;2.58;;;22.70;1.00;;;;;;4994654;28;20208;-70
2023/05/31 10:46:20;;;;;;;4.57;2.80;;;22.60;1.00;;;;;;4896788;29;20725;-71
2023/05/31 10:48:59;;;;;;;4.43;2.67;;;22.50;1.00;;;;;;4896710;29;20236;-70
2023/05/31 10:51:47;;;;;;;5.70;2.80;;;22.60;1.00;;;;;;4953575;28;20212;-71
2023/05/31 10:54:27;;;;;;;7.72;3.15;;;22.60;1.00;;;;;;4994427;28;20192;-70
2023/05/31 10:56:53;;;;;;;5.28;2.70;;;22.70;1.00;;;;;;4994162;28;20188;-70
2023/05/31 10:59:19;;;;;;;6.78;3.47;;;22.70;1.00;;;;;;4992986;28;20176;-70
2023/05/31 11:01:46;;;;;;;7.70;3.00;;;22.40;99.90;;;;;;4992698;28;20291;-71
2023/05/31 11:04:24;;;;;;;8.10;4.05;;;22.50;99.90;;;;;;4994533;28;20589;-71
2023/05/31 11:06:54;;;;;;;7.07;3.35;;;22.50;99.90;;;;;;4989450;28;20663;-69
2023/05/31 11:09:21;;;;;;;5.20;3.15;;;22.60;99.90;;;;;;4992938;28;20180;-68
2023/05/31 11:11:50;;;;;;;8.10;3.22;;;22.70;99.90;;;;;;4994311;28;20266;-75
2023/05/31 11:14:16;;;;;;;7.30;3.58;;;22.50;99.90;;;;;;4993875;28;20200;-75
2023/05/31 11:16:48;;;;;;;8.43;3.03;;;22.60;99.90;;;;;;4992746;28;20651;-75
2023/05/31 11:19:16;;;;;;;6.78;3.53;;;22.80;99.90;;;;;;4992797;28;20200;-76
2023/05/31 11:21:54;;;;;;;7.05;3.15;;;23.10;99.90;;;;;;4994429;28;20227;-76
2023/05/31 11:24:37;;;;;;;5.15;2.65;;;23.20;99.90;;;;;;4994765;28;20240;-77
2023/05/31 11:27:13;;;;;;;5.75;2.83;;;23.10;99.90;;;;;;4994301;28;20156;-77
2023/05/31 11:29:48;;;;;;;3.60;2.50;;;23.10;99.90;;;;;;4993071;28;20234;-77
2023/05/31 11:32:19;;;;;;;6.70;3.00;;;23.20;99.90;;;;;;4994678;28;20164;-77
2023/05/31 11:34:56;;;;;;;5.03;2.95;;;23.50;99.90;;;;;;4991705;28;20192;-77
2023/05/31 11:37:22;;;;;;;5.20;3.00;;;23.70;99.90;;;;;;4992695;28;20188;-78
2023/05/31 11:39:48;;;;;;;7.53;3.25;;;23.80;99.90;;;;;;4994397;28;20223;-77
2023/05/31 11:42:15;;;;;;;8.27;3.42;;;23.90;99.90;;;;;;4992781;28;20183;-76
2023/05/31 11:44:45;;;;;;;6.90;2.90;;;23.80;99.90;;;;;;4994436;28;20169;-77
2023/05/31 11:47:18;;;;;;;6.40;3.30;;;24.00;99.90;;;;;;4993478;28;20168;-77
2023/05/31 11:49:44;;;;;;;8.10;3.20;;;24.00;99.90;;;;;;4998771;28;20175;-78
2023/05/31 11:52:15;;;;;;;4.32;2.80;;;24.10;99.90;;;;;;5001440;28;20176;-79
2023/05/31 11:54:44;;;;;;;7.03;3.53;;;24.10;99.90;;;;;;5000297;28;20193;-79
2023/05/31 11:57:10;;;;;;;6.85;2.80;;;24.30;99.90;;;;;;5001641;28;20231;-79
2023/05/31 11:59:38;;;;;;;11.13;3.22;;;24.40;99.90;;;;;;4998643;28;20550;-79
2023/05/31 12:02:05;;;;;;;4.47;2.78;;;24.30;99.90;;;;;;4994022;28;20220;-77
2023/05/31 12:04:39;;;;;;;5.15;2.72;;;24.00;99.90;;;;;;4992775;28;20184;-77
2023/05/31 12:07:17;;;;;;;5.50;2.70;;;24.20;99.90;;;;;;4975918;28;20591;-76
2023/05/31 12:09:43;;;;;;;5.82;3.08;;;24.50;99.90;;;;;;4972967;28;20179;-76
2023/05/31 12:12:11;;;;;;;4.72;2.75;;;24.90;99.90;;;;;;4989690;28;20185;-79
2023/05/31 12:14:37;;;;;;;6.60;2.80;;;24.70;99.90;;;;;;4974226;28;20280;-75
2023/05/31 12:17:07;;;;;;;5.28;2.83;;;24.80;99.90;;;;;;4989929;28;20258;-76
2023/05/31 12:19:33;;;;;;;6.28;2.75;;;24.70;99.90;;;;;;4973518;28;20178;-75
2023/05/31 12:22:00;;;;;;;5.63;2.88;;;24.60;99.90;;;;;;4972925;28;20200;-75
2023/05/31 12:24:27;;;;;;;5.57;2.72;;;24.60;99.90;;;;;;4974356;28;20201;-75
2023/05/31 12:26:54;;;;;;;9.93;3.20;;;24.50;99.90;;;;;;4977639;28;20173;-75
2023/05/31 12:29:27;;;;;;;5.20;2.63;;;24.50;99.90;;;;;;4978500;28;20178;-75
2023/05/31 12:32:04;;;;;;;7.53;3.25;;;24.60;99.90;;;;;;4976863;28;20201;-75
2023/05/31 12:34:34;;;;;;;6.82;2.72;;;24.60;99.90;;;;;;4979745;28;20208;-74
2023/05/31 12:37:06;;;;;;;5.40;3.00;;;25.00;99.90;;;;;;4997224;28;20184;-76
2023/05/31 12:39:36;;;;;;;6.65;2.92;;;24.80;99.90;;;;;;4999364;28;20184;-77
2023/05/31 12:42:03;;;;;;;4.72;2.88;;;24.80;99.90;;;;;;4997587;28;20215;-78